createdAt,value
2023-04-01T00:03:07.565Z,80.33
2023-04-01T00:18:25.985Z,79.96
2023-04-01T00:33:28.625Z,79.61
2023-04-01T00:48:36.530Z,79.68
2023-04-01T01:03:39.366Z,79.55
2023-04-01T01:19:01.993Z,79.57
2023-04-01T01:34:23.059Z,79.49
2023-04-01T01:49:42.944Z,79.69
2023-04-01T02:05:02.154Z,79.91
2023-04-01T02:20:24.294Z,79.82
2023-04-01T02:35:41.344Z,80.03
2023-04-01T02:50:58.508Z,80.31
2023-04-01T03:06:09.535Z,80.53
2023-04-01T03:21:22.110Z,80.26
2023-04-01T03:36:39.215Z,80.21
2023-04-01T03:51:56.247Z,80.27
2023-04-01T04:06:59.051Z,79.95
2023-04-01T04:22:16.099Z,79.96
2023-04-01T04:37:18.450Z,79.98
2023-04-01T04:52:35.610Z,79.75
2023-04-01T05:07:38.153Z,79.51
2023-04-01T05:22:40.814Z,79.88
2023-04-01T05:37:43.608Z,80.39
2023-04-01T05:52:47.006Z,80.50
2023-04-01T06:08:12.859Z,80.37
2023-04-01T06:23:39.849Z,80.39
2023-04-01T06:39:37.531Z,80.51
2023-04-01T06:54:53.157Z,80.75
2023-04-01T07:10:00.863Z,80.76
2023-04-01T07:25:28.249Z,81.49
2023-04-01T07:41:11.777Z,81.99
2023-04-01T07:56:36.338Z,81.66
2023-04-01T08:12:06.956Z,81.56
2023-04-01T08:27:23.983Z,81.65
2023-04-01T08:42:45.397Z,82.09
2023-04-01T08:58:09.406Z,82.46
2023-04-01T09:13:47.080Z,82.57
2023-04-01T09:29:38.710Z,82.61
2023-04-01T09:45:08.152Z,82.39
2023-04-01T10:00:16.854Z,82.66
2023-04-01T10:15:51.512Z,82.95
2023-04-01T10:31:17.288Z,82.71
2023-04-01T10:47:03.251Z,82.52
2023-04-01T11:02:49.948Z,82.69
2023-04-01T11:18:23.804Z,82.57
2023-04-01T11:33:55.290Z,82.56
2023-04-01T11:49:32.950Z,82.68
2023-04-01T12:11:30.701Z,82.20
2023-04-01T12:27:29.981Z,82.90
2023-04-01T12:43:06.647Z,82.99
2023-04-01T12:59:00.397Z,82.82
2023-04-01T13:14:40.721Z,82.84
2023-04-01T13:30:00.787Z,82.59
2023-04-01T13:45:19.828Z,81.82
2023-04-01T14:01:15.568Z,81.38
2023-04-01T14:32:53.791Z,81.01
2023-04-01T14:48:18.172Z,80.97
2023-04-01T15:03:54.870Z,80.85
2023-04-01T15:19:45.831Z,80.78
2023-04-01T15:35:15.321Z,80.88
2023-04-01T15:50:26.272Z,80.65
2023-04-01T16:06:10.844Z,80.90
2023-04-01T16:21:39.287Z,80.93
2023-04-01T16:37:00.922Z,80.99
2023-04-01T16:52:03.596Z,80.60
2023-04-01T17:07:30.452Z,80.84
2023-04-01T17:23:21.998Z,80.54
2023-04-01T17:38:56.805Z,80.86
2023-04-01T17:54:43.437Z,80.94
2023-04-01T18:10:24.237Z,80.73
2023-04-01T18:25:47.176Z,80.86
2023-04-01T18:42:09.450Z,80.59
2023-04-01T18:57:16.103Z,80.09
2023-04-01T19:12:34.422Z,80.08
2023-04-01T19:28:07.796Z,80.39
2023-04-01T19:43:24.414Z,80.53
2023-04-01T19:59:21.211Z,80.86
2023-04-01T20:14:57.087Z,81.16
2023-04-01T20:30:44.382Z,81.36
2023-04-01T20:46:24.419Z,81.71
2023-04-01T21:01:55.673Z,81.53
2023-04-01T21:17:26.869Z,81.66
2023-04-01T21:33:02.150Z,81.76
2023-04-01T21:48:49.611Z,81.64
2023-04-01T22:04:21.920Z,81.70
2023-04-01T22:19:51.347Z,81.72
2023-04-01T22:35:06.378Z,81.72
2023-04-01T22:50:25.894Z,81.41
2023-04-01T23:05:31.210Z,81.25
2023-04-01T23:20:53.829Z,81.18
2023-04-01T23:36:15.978Z,81.16
